Ana Sayfa
METAR-TAF:

METAR-TAF

Havaalanları :

Erzurum Havalimanı

Erzurum, Türkiye

Enlem: 39-55N, Boylam: 041-16E, yükseklik: 1756 m

Güncel hava durumu gözlemi

Rapor saat 19:20 UTC de 30 dakika önce yapıldı.
Sakin rüzgar
Sıcaklık 6°C
Nem 65%
Basınç 1027 hPa
Görüş mesafesi 10 km veya daha fazla
1500 m altında bulut yok ve kümülonimbus yok

METAR: LTCE 161920Z 00000KT CAVOK 06/M00 Q1027 NOSIG RMK RWY08R VRB01KT RWY26R VRB02KT RWY08L 17003KT 100V210

Saat: 22:50 (19:50 UTC)

Tahmin

Rapor saat 16:40 UTC de 3 saat ve 10 dakika önce yapıldı.
Ayın 16'si saat 18 UTC'den ayın 17'si saat 18 UTC'ye kadar geçerli Tahmin
Rüzgar değişken yönden 2 kt
Görüş mesafesi 10 km veya daha fazla
1500 m altında bulut yok ve kümülonimbus yok
Dönüşüyor
ayın 17'si saat 07 UTC'den ayın 17'si saat 09 UTC'ye kadar
3500 ft yükseklikte az bulutlu

TAF: LTCE 161640Z 1618/1718 VRB02KT CAVOK BECMG 1707/1709 FEW035

4.000'den fazla havaalanı için hava durumu gözlemleri ve tahminleri (METAR ve TAF raporları).

Kullanılabilir istasyonlar harita üzerinde sarı ve kırmızı noktalarla gösterilir.

İstasyonun adını görmek için fareyi noktanın üzerinde gezdirin.

Sonrasında hava gözlem ve tahminlerini görmek için tıklayın.

Haritayı değiştirmek için: yaklaştırmak için siyah artı işaretli yeşil düğmeye ve uzaklaştırmak için de eksi işaretli düğmeye hızla tıklayın; bitişik haritalar için yeşil okları kullanın.


METAR-TAF: